Time;durP1;ratioP1;P1;durP2;ratioP2;P2;SDS_P1;SDS_P2;PMS_P1;PMS_P2;Temp;Humidity;BMP_temperature;BMP_pressure;BME280_temperature;BME280_humidity;BME280_pressure;Samples;Min_cycle;Max_cycle;Signal;HPM_P1;HPM_P2
2021/04/18 00:03:37;;;;;;;4.85;1.70;;;19.80;43.30;;;;;;20831088;28;20033;-23
2021/04/18 00:13:38;;;;;;;3.90;1.42;;;19.70;43.40;;;;;;20858215;28;20072;-21
2021/04/18 00:23:39;;;;;;;3.42;1.48;;;19.60;43.30;;;;;;20856806;28;20533;-22
2021/04/18 00:33:40;;;;;;;6.95;2.22;;;19.60;43.30;;;;;;20857067;28;20598;-22
2021/04/18 00:43:44;;;;;;;5.88;1.67;;;19.60;43.20;;;;;;20850539;28;20021;-23
2021/04/18 00:53:45;;;;;;;3.22;1.60;;;19.50;43.40;;;;;;20885798;22;20381;-22
2021/04/18 01:03:46;;;;;;;4.95;1.50;;;19.50;43.30;;;;;;20831639;28;20471;-22
2021/04/18 01:13:47;;;;;;;2.40;1.55;;;19.60;43.30;;;;;;20860482;28;20470;-22
2021/04/18 01:23:47;;;;;;;5.45;1.30;;;19.50;43.70;;;;;;20849373;28;20065;-23
2021/04/18 01:33:48;;;;;;;4.07;1.70;;;19.40;43.80;;;;;;20852095;28;20037;-23
2021/04/18 01:43:49;;;;;;;4.30;1.73;;;19.40;43.90;;;;;;20855951;28;20021;-23
2021/04/18 01:53:49;;;;;;;2.67;1.20;;;19.40;43.90;;;;;;20850829;28;20030;-23
2021/04/18 02:03:50;;;;;;;2.75;1.20;;;19.40;43.80;;;;;;20849367;28;20091;-23
2021/04/18 02:13:50;;;;;;;4.63;1.33;;;19.30;43.70;;;;;;20855070;28;20057;-23
2021/04/18 02:23:51;;;;;;;3.40;1.88;;;19.30;43.70;;;;;;20857309;28;20033;-24
2021/04/18 02:33:51;;;;;;;2.63;1.40;;;19.30;43.70;;;;;;20844296;28;20127;-23
2021/04/18 02:43:52;;;;;;;3.65;1.30;;;19.30;43.60;;;;;;20843950;28;20138;-23
2021/04/18 02:53:52;;;;;;;2.78;1.45;;;19.30;43.50;;;;;;20826926;28;20091;-24
2021/04/18 03:03:53;;;;;;;2.10;1.20;;;19.20;43.50;;;;;;20849003;28;20500;-24
2021/04/18 03:13:54;;;;;;;4.05;1.05;;;19.20;43.50;;;;;;20850428;28;20419;-24
2021/04/18 03:23:54;;;;;;;3.60;2.05;;;19.20;43.50;;;;;;20866522;28;20553;-24
2021/04/18 03:33:55;;;;;;;4.40;1.65;;;19.20;43.50;;;;;;20867514;28;20086;-24
2021/04/18 03:43:55;;;;;;;2.58;1.27;;;19.20;43.40;;;;;;20834794;28;20026;-24
2021/04/18 03:53:56;;;;;;;5.30;1.30;;;19.10;43.40;;;;;;20833510;28;20150;-24
2021/04/18 04:03:56;;;;;;;3.45;1.58;;;19.10;43.40;;;;;;20836087;28;20100;-24
2021/04/18 04:13:57;;;;;;;4.00;1.27;;;19.00;43.30;;;;;;20829806;28;20049;-24
2021/04/18 04:23:57;;;;;;;2.92;1.70;;;19.00;43.30;;;;;;20829643;28;20380;-24
2021/04/18 04:33:58;;;;;;;3.20;1.48;;;19.00;43.30;;;;;;20828531;28;20483;-24
2021/04/18 04:43:59;;;;;;;3.03;1.58;;;19.00;43.30;;;;;;20812508;28;20052;-23
2021/04/18 04:53:59;;;;;;;3.88;1.70;;;19.00;43.30;;;;;;20827587;28;20030;-23
2021/04/18 05:04:00;;;;;;;3.08;1.65;;;19.00;43.20;;;;;;20827784;28;20040;-23
2021/04/18 05:14:00;;;;;;;3.35;1.42;;;18.90;43.20;;;;;;20821436;28;20036;-23
2021/04/18 05:24:01;;;;;;;2.92;1.30;;;18.90;43.20;;;;;;20826524;28;20056;-24
2021/04/18 05:34:02;;;;;;;3.13;1.63;;;18.90;43.20;;;;;;20845958;28;20056;-24
2021/04/18 05:44:04;;;;;;;2.72;1.15;;;18.90;43.20;;;;;;20853171;28;20484;-24
2021/04/18 05:54:06;;;;;;;3.53;1.67;;;18.90;43.20;;;;;;20848203;28;20033;-24
2021/04/18 06:04:07;;;;;;;2.33;1.13;;;18.90;43.20;;;;;;20848143;28;20030;-24
2021/04/18 06:14:07;;;;;;;1.98;1.30;;;18.90;43.30;;;;;;20816413;28;20044;-24
2021/04/18 06:24:08;;;;;;;2.50;1.47;;;19.20;42.90;;;;;;20793322;28;20057;-24
2021/04/18 06:34:09;;;;;;;2.83;1.20;;;20.10;41.30;;;;;;20801375;28;20033;-24
2021/04/18 06:44:10;;;;;;;3.85;1.67;;;21.10;39.50;;;;;;20826737;28;20453;-24
2021/04/18 06:54:11;;;;;;;4.47;1.60;;;22.00;37.90;;;;;;20898106;22;20060;-22
2021/04/18 07:04:16;;;;;;;2.08;1.15;;;22.80;36.60;;;;;;20862153;28;20985;-22
2021/04/18 07:14:31;;;;;;;11.98;1.63;;;23.30;35.80;;;;;;20847413;28;20626;-22
2021/04/18 07:24:32;;;;;;;10.77;1.92;;;23.00;36.30;;;;;;20841797;28;20037;-23
2021/04/18 07:34:37;;;;;;;7.43;1.80;;;22.80;36.80;;;;;;20837824;28;20195;-23
2021/04/18 07:44:38;;;;;;;8.32;2.15;;;22.40;37.50;;;;;;20830576;28;20060;-23
2021/04/18 07:54:39;;;;;;;11.75;4.30;;;22.10;38.60;;;;;;20832028;28;20029;-23
2021/04/18 08:04:42;;;;;;;36.83;18.67;;;22.10;38.70;;;;;;20845764;28;20094;-23
2021/04/18 08:14:48;;;;;;;22.50;13.43;;;21.60;38.20;;;;;;20830582;28;20681;-22
2021/04/18 08:25:07;;;;;;;21.00;10.60;;;21.50;37.90;;;;;;20830825;28;20025;-22
2021/04/18 08:35:14;;;;;;;16.30;7.90;;;21.30;38.10;;;;;;20817262;28;20017;-23
2021/04/18 08:45:16;;;;;;;13.80;6.88;;;22.00;37.90;;;;;;20832891;28;20040;-24
2021/04/18 08:55:16;;;;;;;9.93;4.97;;;22.40;38.00;;;;;;20761727;28;20025;-24
2021/04/18 09:05:20;;;;;;;12.50;4.60;;;22.40;38.20;;;;;;20831555;28;20040;-22
2021/04/18 09:15:30;;;;;;;17.55;5.85;;;22.20;38.60;;;;;;20828121;28;20029;-23
2021/04/18 09:25:30;;;;;;;15.75;4.97;;;21.90;39.20;;;;;;20822620;28;20018;-23
2021/04/18 09:35:31;;;;;;;14.32;5.68;;;21.60;39.60;;;;;;20822381;28;20422;-21
2021/04/18 09:45:33;;;;;;;14.20;4.37;;;21.50;39.70;;;;;;20841894;28;20040;-22
2021/04/18 09:55:34;;;;;;;17.70;5.10;;;21.30;40.20;;;;;;20824554;28;21017;-21
2021/04/18 10:05:37;;;;;;;15.70;5.22;;;21.10;40.40;;;;;;20819734;28;20087;-22
2021/04/18 10:15:55;;;;;;;7.53;4.63;;;21.00;40.70;;;;;;20825798;28;20461;-22
2021/04/18 10:25:55;;;;;;;7.13;3.50;;;20.70;41.10;;;;;;20817890;28;20049;-22
2021/04/18 10:35:57;;;;;;;13.35;3.33;;;20.60;42.00;;;;;;20821778;28;20033;-23
2021/04/18 10:45:58;;;;;;;8.57;3.63;;;20.50;41.70;;;;;;20820984;28;20037;-23
2021/04/18 10:55:59;;;;;;;9.93;3.53;;;20.40;42.00;;;;;;20824659;28;20033;-23
2021/04/18 11:05:59;;;;;;;5.32;2.72;;;20.30;42.20;;;;;;20820152;28;20034;-23
2021/04/18 11:16:00;;;;;;;6.82;2.95;;;20.20;42.40;;;;;;20819757;28;20055;-22
2021/04/18 11:26:01;;;;;;;5.95;3.13;;;20.00;42.50;;;;;;20827607;28;20075;-22
2021/04/18 11:36:02;;;;;;;8.63;3.20;;;20.10;42.50;;;;;;20823294;28;20029;-22
2021/04/18 11:46:05;;;;;;;7.47;2.95;;;20.10;42.90;;;;;;20832358;28;20040;-23
2021/04/18 11:56:06;;;;;;;11.00;3.08;;;20.10;43.10;;;;;;20832134;28;20107;-23
2021/04/18 12:06:06;;;;;;;8.73;3.20;;;19.90;43.60;;;;;;20833216;28;20029;-22
2021/04/18 12:16:09;;;;;;;6.95;2.80;;;19.90;43.80;;;;;;20831915;28;20064;-22
2021/04/18 12:26:09;;;;;;;4.15;2.42;;;20.00;43.90;;;;;;20831091;28;20068;-23
2021/04/18 12:36:10;;;;;;;6.95;2.88;;;19.90;44.00;;;;;;20829571;28;20029;-23
2021/04/18 12:46:11;;;;;;;4.63;1.90;;;19.90;43.80;;;;;;20807120;28;20029;-23
2021/04/18 12:56:11;;;;;;;5.43;2.55;;;19.90;44.50;;;;;;20827650;28;20384;-23
2021/04/18 13:06:12;;;;;;;5.35;2.85;;;19.90;44.30;;;;;;20938560;22;20075;-24
2021/04/18 13:16:13;;;;;;;7.22;3.10;;;19.90;44.70;;;;;;20988309;28;20025;-24
2021/04/18 13:26:13;;;;;;;8.77;3.13;;;19.80;44.50;;;;;;20989102;28;20032;-24
2021/04/18 13:36:14;;;;;;;6.93;2.60;;;19.80;44.40;;;;;;20989995;28;20520;-24
2021/04/18 13:46:15;;;;;;;4.95;2.08;;;19.80;44.50;;;;;;20972888;28;20090;-24
2021/04/18 13:56:15;;;;;;;4.80;2.03;;;19.80;44.60;;;;;;20987353;28;20048;-24
2021/04/18 14:06:16;;;;;;;8.45;2.65;;;19.80;44.70;;;;;;20986391;28;20040;-24
2021/04/18 14:16:17;;;;;;;4.10;1.67;;;19.70;44.80;;;;;;20988418;28;20029;-24
2021/04/18 14:26:18;;;;;;;5.28;2.85;;;19.70;44.80;;;;;;20989460;28;20115;-24
2021/04/18 14:36:18;;;;;;;3.67;2.38;;;19.70;45.00;;;;;;20989878;28;20048;-23
2021/04/18 14:46:19;;;;;;;2.88;1.70;;;19.70;45.00;;;;;;20987365;28;20383;-24
2021/04/18 14:56:19;;;;;;;6.90;2.03;;;19.60;45.10;;;;;;20953814;28;20406;-23
2021/04/18 15:06:20;;;;;;;5.25;1.88;;;19.60;45.10;;;;;;20959982;28;20051;-23
2021/04/18 15:16:21;;;;;;;5.38;2.20;;;19.60;45.20;;;;;;20980908;28;20394;-23
2021/04/18 15:26:21;;;;;;;3.78;2.28;;;19.50;45.10;;;;;;20979041;28;20105;-23
2021/04/18 15:36:22;;;;;;;7.72;2.22;;;19.50;45.30;;;;;;20965579;28;20463;-24
2021/04/18 15:46:23;;;;;;;3.08;1.73;;;19.50;45.30;;;;;;20978780;28;20112;-24
2021/04/18 15:56:24;;;;;;;3.20;1.73;;;19.50;45.40;;;;;;20974312;28;20486;-24
2021/04/18 16:06:24;;;;;;;2.97;1.67;;;19.40;45.50;;;;;;20977222;28;20095;-24
2021/04/18 16:16:25;;;;;;;4.57;1.90;;;19.40;46.40;;;;;;20996157;28;20375;-24
2021/04/18 16:26:26;;;;;;;3.15;1.52;;;19.90;45.90;;;;;;20999208;28;20020;-24
2021/04/18 16:36:27;;;;;;;3.42;2.08;;;20.60;44.80;;;;;;20995075;28;20396;-24
2021/04/18 16:46:28;;;;;;;2.72;1.48;;;21.30;43.70;;;;;;20994792;28;20025;-24
2021/04/18 16:56:29;;;;;;;3.20;1.38;;;22.00;42.60;;;;;;20992500;28;20600;-24
2021/04/18 17:06:30;;;;;;;1.70;1.00;;;22.60;41.50;;;;;;20993495;28;20113;-24
2021/04/18 17:16:30;;;;;;;2.58;1.45;;;23.00;41.20;;;;;;20980367;28;20048;-24
2021/04/18 17:26:31;;;;;;;2.88;1.63;;;22.70;41.80;;;;;;20991121;28;20035;-23
2021/04/18 17:36:31;;;;;;;2.40;1.43;;;22.40;42.70;;;;;;20989762;28;20021;-23
2021/04/18 17:46:32;;;;;;;3.30;1.40;;;22.20;43.40;;;;;;20990335;28;20769;-24
2021/04/18 17:56:33;;;;;;;2.95;1.17;;;22.00;44.00;;;;;;20989144;28;20035;-24
2021/04/18 18:06:34;;;;;;;1.85;1.10;;;21.80;44.50;;;;;;20974925;28;20494;-24
2021/04/18 18:16:35;;;;;;;2.47;1.40;;;21.70;44.80;;;;;;20985916;28;20452;-24
2021/04/18 18:26:36;;;;;;;2.05;1.02;;;21.60;45.40;;;;;;20986166;28;20107;-24
2021/04/18 18:36:38;;;;;;;2.22;1.45;;;21.70;45.20;;;;;;20985251;28;20016;-24
2021/04/18 18:46:39;;;;;;;2.60;1.30;;;21.70;45.50;;;;;;20990358;28;20062;-22
2021/04/18 18:56:40;;;;;;;4.00;1.55;;;22.00;45.30;;;;;;21005116;28;20134;-23
2021/04/18 19:06:40;;;;;;;6.00;2.10;;;21.90;45.80;;;;;;20988482;28;20060;-23
2021/04/18 19:16:41;;;;;;;6.25;3.25;;;21.90;45.70;;;;;;20985306;28;20411;-24
2021/04/18 19:26:41;;;;;;;3.65;2.53;;;21.70;45.50;;;;;;20991742;28;20081;-23
2021/04/18 19:36:42;;;;;;;9.15;2.20;;;22.00;45.90;;;;;;20995717;28;20047;-23
2021/04/18 19:46:43;;;;;;;6.32;1.92;;;22.00;46.00;;;;;;20954543;22;20076;-24
2021/04/18 19:56:43;;;;;;;5.18;2.05;;;21.80;46.10;;;;;;20826451;28;20052;-24
2021/04/18 20:06:44;;;;;;;13.52;3.10;;;22.10;46.70;;;;;;20829798;28;20057;-23
2021/04/18 20:16:46;;;;;;;7.05;2.60;;;22.20;47.00;;;;;;20776584;28;20052;-24
2021/04/18 20:26:46;;;;;;;5.93;2.30;;;22.00;47.80;;;;;;20821395;28;20673;-24
2021/04/18 20:36:47;;;;;;;4.63;2.43;;;21.70;48.70;;;;;;20837066;28;20056;-23
2021/04/18 20:46:47;;;;;;;6.70;2.30;;;21.50;49.10;;;;;;20840533;28;20037;-24
2021/04/18 20:56:48;;;;;;;12.35;3.30;;;21.30;49.70;;;;;;20823429;28;20445;-24
2021/04/18 21:06:48;;;;;;;8.32;2.50;;;21.20;49.90;;;;;;20827138;28;20030;-23
2021/04/18 21:16:50;;;;;;;5.55;1.80;;;21.20;50.10;;;;;;20826744;28;20029;-24
2021/04/18 21:26:50;;;;;;;7.03;2.05;;;21.20;50.10;;;;;;20826259;28;20048;-24
2021/04/18 21:36:51;;;;;;;4.77;1.77;;;20.90;50.50;;;;;;20827809;28;20487;-24
2021/04/18 21:46:52;;;;;;;7.70;3.15;;;20.80;51.00;;;;;;20824292;28;20579;-24
2021/04/18 21:56:54;;;;;;;4.73;1.93;;;20.70;51.10;;;;;;20836997;28;20057;-23
2021/04/18 22:06:55;;;;;;;6.93;1.98;;;20.60;51.50;;;;;;20822207;28;20459;-24
2021/04/18 22:16:55;;;;;;;8.70;2.53;;;20.60;51.40;;;;;;20827377;28;20520;-24
2021/04/18 22:26:56;;;;;;;6.15;1.90;;;20.60;51.20;;;;;;20835000;28;20036;-24
2021/04/18 22:36:57;;;;;;;7.22;1.75;;;20.50;51.80;;;;;;20830775;28;20057;-24
2021/04/18 22:46:59;;;;;;;5.15;1.67;;;20.40;51.90;;;;;;20784664;28;20155;-24
2021/04/18 22:56:59;;;;;;;7.20;1.92;;;20.40;51.80;;;;;;20786367;28;20113;-23
2021/04/18 23:07:00;;;;;;;3.50;2.10;;;20.30;51.50;;;;;;20846638;28;20064;-23
2021/04/18 23:17:01;;;;;;;6.87;2.10;;;20.30;51.00;;;;;;20836533;28;20112;-23
2021/04/18 23:27:01;;;;;;;3.55;1.60;;;20.20;51.00;;;;;;20836816;28;20467;-24
2021/04/18 23:37:02;;;;;;;6.07;2.27;;;20.20;50.90;;;;;;20851758;28;20033;-24
2021/04/18 23:47:03;;;;;;;7.32;2.45;;;20.10;51.00;;;;;;20849306;28;20891;-24
2021/04/18 23:57:03;;;;;;;4.00;2.17;;;20.10;50.90;;;;;;20850567;28;20041;-24
